sensor_id;sensor_type;location;lat;lon;timestamp;P1;durP1;ratioP1;P2;durP2;ratioP2
59689;SDS011;45557;50.298;18.930;2022-10-22T00:00:28;12.70;;;8.20;;
59689;SDS011;45557;50.298;18.930;2022-10-22T00:07:12;14.70;;;9.20;;
59689;SDS011;45557;50.298;18.930;2022-10-22T00:12:35;13.70;;;8.40;;
59689;SDS011;45557;50.298;18.930;2022-10-22T00:17:58;13.60;;;8.10;;
59689;SDS011;45557;50.298;18.930;2022-10-22T00:23:20;13.40;;;8.20;;
59689;SDS011;45557;50.298;18.930;2022-10-22T00:28:41;12.90;;;7.70;;
59689;SDS011;45557;50.298;18.930;2022-10-22T00:34:04;13.60;;;8.20;;
59689;SDS011;45557;50.298;18.930;2022-10-22T00:39:28;12.40;;;7.70;;
59689;SDS011;45557;50.298;18.930;2022-10-22T00:55:56;15.60;;;8.80;;
59689;SDS011;45557;50.298;18.930;2022-10-22T01:01:26;13.90;;;8.20;;
59689;SDS011;45557;50.298;18.930;2022-10-22T01:06:50;12.80;;;7.90;;
59689;SDS011;45557;50.298;18.930;2022-10-22T01:17:52;16.10;;;8.50;;
59689;SDS011;45557;50.298;18.930;2022-10-22T01:28:59;15.20;;;9.10;;
59689;SDS011;45557;50.298;18.930;2022-10-22T01:34:30;13.30;;;8.40;;
59689;SDS011;45557;50.298;18.930;2022-10-22T01:39:52;12.80;;;7.50;;
59689;SDS011;45557;50.298;18.930;2022-10-22T01:45:16;12.30;;;8.30;;
59689;SDS011;45557;50.298;18.930;2022-10-22T02:02:34;15.00;;;7.80;;
59689;SDS011;45557;50.298;18.930;2022-10-22T02:08:15;11.70;;;7.40;;
59689;SDS011;45557;50.298;18.930;2022-10-22T02:14:10;12.00;;;8.00;;
59689;SDS011;45557;50.298;18.930;2022-10-22T02:19:40;12.90;;;8.20;;
59689;SDS011;45557;50.298;18.930;2022-10-22T02:25:28;11.90;;;8.00;;
59689;SDS011;45557;50.298;18.930;2022-10-22T02:31:08;12.90;;;8.00;;
59689;SDS011;45557;50.298;18.930;2022-10-22T02:36:44;12.60;;;8.40;;
59689;SDS011;45557;50.298;18.930;2022-10-22T02:42:10;11.70;;;7.50;;
59689;SDS011;45557;50.298;18.930;2022-10-22T02:47:33;14.10;;;7.90;;
59689;SDS011;45557;50.298;18.930;2022-10-22T02:52:55;13.30;;;8.70;;
59689;SDS011;45557;50.298;18.930;2022-10-22T02:58:17;14.10;;;8.60;;
59689;SDS011;45557;50.298;18.930;2022-10-22T03:03:39;14.80;;;8.80;;
59689;SDS011;45557;50.298;18.930;2022-10-22T03:09:01;14.20;;;8.80;;
59689;SDS011;45557;50.298;18.930;2022-10-22T03:14:23;14.90;;;9.80;;
59689;SDS011;45557;50.298;18.930;2022-10-22T03:19:48;14.40;;;9.30;;
59689;SDS011;45557;50.298;18.930;2022-10-22T03:25:11;14.70;;;9.30;;
59689;SDS011;45557;50.298;18.930;2022-10-22T03:30:38;15.40;;;8.50;;
59689;SDS011;45557;50.298;18.930;2022-10-22T03:35:59;13.70;;;8.70;;
59689;SDS011;45557;50.298;18.930;2022-10-22T03:41:22;14.40;;;9.10;;
59689;SDS011;45557;50.298;18.930;2022-10-22T03:46:43;12.10;;;8.60;;
59689;SDS011;45557;50.298;18.930;2022-10-22T03:52:09;16.10;;;9.20;;
59689;SDS011;45557;50.298;18.930;2022-10-22T03:57:33;14.30;;;8.50;;
59689;SDS011;45557;50.298;18.930;2022-10-22T04:02:56;14.40;;;9.60;;
59689;SDS011;45557;50.298;18.930;2022-10-22T04:08:18;18.40;;;9.60;;
59689;SDS011;45557;50.298;18.930;2022-10-22T04:13:40;14.50;;;9.10;;
59689;SDS011;45557;50.298;18.930;2022-10-22T04:19:03;15.50;;;9.10;;
59689;SDS011;45557;50.298;18.930;2022-10-22T04:24:25;13.50;;;8.70;;
59689;SDS011;45557;50.298;18.930;2022-10-22T04:29:47;15.40;;;8.90;;
59689;SDS011;45557;50.298;18.930;2022-10-22T04:35:09;15.00;;;8.30;;
59689;SDS011;45557;50.298;18.930;2022-10-22T04:40:31;15.20;;;9.40;;
59689;SDS011;45557;50.298;18.930;2022-10-22T04:45:52;15.70;;;9.80;;
59689;SDS011;45557;50.298;18.930;2022-10-22T04:51:15;13.60;;;8.30;;
59689;SDS011;45557;50.298;18.930;2022-10-22T04:56:39;15.20;;;8.10;;
59689;SDS011;45557;50.298;18.930;2022-10-22T05:02:00;13.80;;;8.10;;
59689;SDS011;45557;50.298;18.930;2022-10-22T05:07:22;14.40;;;8.20;;
59689;SDS011;45557;50.298;18.930;2022-10-22T05:12:44;15.30;;;8.90;;
59689;SDS011;45557;50.298;18.930;2022-10-22T05:18:06;16.90;;;9.50;;
59689;SDS011;45557;50.298;18.930;2022-10-22T05:23:28;15.30;;;9.50;;
59689;SDS011;45557;50.298;18.930;2022-10-22T05:28:50;16.10;;;9.30;;
59689;SDS011;45557;50.298;18.930;2022-10-22T05:34:14;26.20;;;13.80;;
59689;SDS011;45557;50.298;18.930;2022-10-22T05:40:06;18.20;;;10.00;;
59689;SDS011;45557;50.298;18.930;2022-10-22T05:46:32;42.40;;;24.00;;
59689;SDS011;45557;50.298;18.930;2022-10-22T05:53:12;36.60;;;20.40;;
59689;SDS011;45557;50.298;18.930;2022-10-22T05:59:56;22.70;;;15.00;;
59689;SDS011;45557;50.298;18.930;2022-10-22T06:06:43;18.30;;;11.40;;
59689;SDS011;45557;50.298;18.930;2022-10-22T06:13:24;16.10;;;9.90;;
59689;SDS011;45557;50.298;18.930;2022-10-22T06:20:07;18.70;;;11.20;;
59689;SDS011;45557;50.298;18.930;2022-10-22T06:26:50;18.90;;;11.30;;
59689;SDS011;45557;50.298;18.930;2022-10-22T06:32:13;16.50;;;10.40;;
59689;SDS011;45557;50.298;18.930;2022-10-22T06:37:35;18.50;;;11.10;;
59689;SDS011;45557;50.298;18.930;2022-10-22T06:43:00;16.40;;;10.00;;
59689;SDS011;45557;50.298;18.930;2022-10-22T06:48:22;19.00;;;11.30;;
59689;SDS011;45557;50.298;18.930;2022-10-22T06:54:07;18.30;;;11.00;;
59689;SDS011;45557;50.298;18.930;2022-10-22T06:59:30;20.30;;;10.60;;
59689;SDS011;45557;50.298;18.930;2022-10-22T07:04:52;15.00;;;10.80;;
59689;SDS011;45557;50.298;18.930;2022-10-22T07:10:14;19.40;;;11.60;;
59689;SDS011;45557;50.298;18.930;2022-10-22T07:15:36;17.60;;;11.50;;
59689;SDS011;45557;50.298;18.930;2022-10-22T07:21:00;16.70;;;10.50;;
59689;SDS011;45557;50.298;18.930;2022-10-22T07:26:22;16.80;;;11.20;;
59689;SDS011;45557;50.298;18.930;2022-10-22T07:31:53;17.90;;;10.70;;
59689;SDS011;45557;50.298;18.930;2022-10-22T07:37:15;16.80;;;10.10;;
59689;SDS011;45557;50.298;18.930;2022-10-22T07:42:37;15.10;;;9.90;;
59689;SDS011;45557;50.298;18.930;2022-10-22T07:47:59;16.80;;;10.60;;
59689;SDS011;45557;50.298;18.930;2022-10-22T07:53:22;21.00;;;9.60;;
59689;SDS011;45557;50.298;18.930;2022-10-22T07:58:53;17.10;;;9.50;;
59689;SDS011;45557;50.298;18.930;2022-10-22T08:04:17;14.90;;;9.30;;
59689;SDS011;45557;50.298;18.930;2022-10-22T08:10:40;18.20;;;10.70;;
59689;SDS011;45557;50.298;18.930;2022-10-22T08:16:02;15.70;;;9.70;;
59689;SDS011;45557;50.298;18.930;2022-10-22T08:21:25;15.30;;;9.70;;
59689;SDS011;45557;50.298;18.930;2022-10-22T08:27:36;16.20;;;10.50;;
59689;SDS011;45557;50.298;18.930;2022-10-22T08:33:04;20.00;;;12.60;;
59689;SDS011;45557;50.298;18.930;2022-10-22T08:38:26;18.60;;;11.00;;
59689;SDS011;45557;50.298;18.930;2022-10-22T08:49:20;17.30;;;11.10;;
59689;SDS011;45557;50.298;18.930;2022-10-22T08:54:56;19.20;;;10.90;;
59689;SDS011;45557;50.298;18.930;2022-10-22T09:00:21;14.80;;;10.60;;
59689;SDS011;45557;50.298;18.930;2022-10-22T09:06:11;18.90;;;11.50;;
59689;SDS011;45557;50.298;18.930;2022-10-22T09:11:55;18.70;;;11.00;;
59689;SDS011;45557;50.298;18.930;2022-10-22T09:17:25;16.00;;;11.00;;
59689;SDS011;45557;50.298;18.930;2022-10-22T09:23:01;18.10;;;11.70;;
59689;SDS011;45557;50.298;18.930;2022-10-22T09:28:25;17.30;;;12.00;;
59689;SDS011;45557;50.298;18.930;2022-10-22T09:33:49;19.40;;;12.20;;
59689;SDS011;45557;50.298;18.930;2022-10-22T09:39:23;17.90;;;11.20;;
59689;SDS011;45557;50.298;18.930;2022-10-22T09:44:52;17.30;;;12.00;;
59689;SDS011;45557;50.298;18.930;2022-10-22T09:56:40;20.60;;;13.10;;
59689;SDS011;45557;50.298;18.930;2022-10-22T10:02:52;19.10;;;12.60;;
59689;SDS011;45557;50.298;18.930;2022-10-22T10:08:17;19.70;;;12.30;;
59689;SDS011;45557;50.298;18.930;2022-10-22T10:31:19;21.00;;;14.00;;
59689;SDS011;45557;50.298;18.930;2022-10-22T10:42:35;21.40;;;14.20;;
59689;SDS011;45557;50.298;18.930;2022-10-22T10:48:11;19.80;;;14.10;;
59689;SDS011;45557;50.298;18.930;2022-10-22T10:53:58;20.80;;;13.50;;
59689;SDS011;45557;50.298;18.930;2022-10-22T11:11:14;17.40;;;13.30;;
59689;SDS011;45557;50.298;18.930;2022-10-22T11:16:45;18.50;;;12.40;;
59689;SDS011;45557;50.298;18.930;2022-10-22T11:22:32;25.90;;;15.30;;
59689;SDS011;45557;50.298;18.930;2022-10-22T11:28:13;22.20;;;14.50;;
59689;SDS011;45557;50.298;18.930;2022-10-22T11:35:03;22.00;;;15.50;;
59689;SDS011;45557;50.298;18.930;2022-10-22T11:41:34;21.90;;;14.20;;
59689;SDS011;45557;50.298;18.930;2022-10-22T11:48:17;22.90;;;13.00;;
59689;SDS011;45557;50.298;18.930;2022-10-22T11:55:00;23.40;;;14.70;;
59689;SDS011;45557;50.298;18.930;2022-10-22T12:00:34;24.50;;;13.70;;
59689;SDS011;45557;50.298;18.930;2022-10-22T12:07:32;19.20;;;13.60;;
59689;SDS011;45557;50.298;18.930;2022-10-22T12:21:14;21.00;;;14.60;;
59689;SDS011;45557;50.298;18.930;2022-10-22T12:34:16;24.70;;;15.00;;
59689;SDS011;45557;50.298;18.930;2022-10-22T12:41:07;20.10;;;14.30;;
59689;SDS011;45557;50.298;18.930;2022-10-22T12:47:14;21.40;;;15.60;;
59689;SDS011;45557;50.298;18.930;2022-10-22T12:53:58;20.80;;;14.90;;
59689;SDS011;45557;50.298;18.930;2022-10-22T13:00:31;20.90;;;13.20;;
59689;SDS011;45557;50.298;18.930;2022-10-22T13:18:03;24.20;;;15.60;;
59689;SDS011;45557;50.298;18.930;2022-10-22T13:23:58;22.00;;;13.90;;
59689;SDS011;45557;50.298;18.930;2022-10-22T13:30:08;19.70;;;14.20;;
59689;SDS011;45557;50.298;18.930;2022-10-22T13:36:49;19.90;;;14.50;;
59689;SDS011;45557;50.298;18.930;2022-10-22T13:43:34;23.60;;;14.70;;
59689;SDS011;45557;50.298;18.930;2022-10-22T13:56:42;24.30;;;16.30;;
59689;SDS011;45557;50.298;18.930;2022-10-22T14:02:15;23.50;;;17.40;;
59689;SDS011;45557;50.298;18.930;2022-10-22T14:14:21;25.50;;;18.40;;
59689;SDS011;45557;50.298;18.930;2022-10-22T14:20:28;29.20;;;19.00;;
59689;SDS011;45557;50.298;18.930;2022-10-22T14:27:34;25.60;;;19.00;;
59689;SDS011;45557;50.298;18.930;2022-10-22T14:34:39;28.10;;;19.90;;
59689;SDS011;45557;50.298;18.930;2022-10-22T14:40:02;26.70;;;19.20;;
59689;SDS011;45557;50.298;18.930;2022-10-22T14:46:07;29.00;;;21.80;;
59689;SDS011;45557;50.298;18.930;2022-10-22T14:51:38;25.70;;;18.40;;
59689;SDS011;45557;50.298;18.930;2022-10-22T14:57:01;29.20;;;20.80;;
59689;SDS011;45557;50.298;18.930;2022-10-22T15:02:24;27.50;;;19.60;;
59689;SDS011;45557;50.298;18.930;2022-10-22T15:07:47;23.70;;;18.10;;
59689;SDS011;45557;50.298;18.930;2022-10-22T15:13:15;28.70;;;20.30;;
59689;SDS011;45557;50.298;18.930;2022-10-22T15:18:38;29.60;;;20.00;;
59689;SDS011;45557;50.298;18.930;2022-10-22T15:24:03;36.30;;;23.10;;
59689;SDS011;45557;50.298;18.930;2022-10-22T15:29:28;31.80;;;19.50;;
59689;SDS011;45557;50.298;18.930;2022-10-22T15:35:51;30.40;;;21.50;;
59689;SDS011;45557;50.298;18.930;2022-10-22T15:41:14;31.80;;;23.10;;
59689;SDS011;45557;50.298;18.930;2022-10-22T15:46:37;31.80;;;23.90;;
59689;SDS011;45557;50.298;18.930;2022-10-22T15:52:11;30.50;;;22.40;;
59689;SDS011;45557;50.298;18.930;2022-10-22T15:57:33;32.90;;;22.10;;
59689;SDS011;45557;50.298;18.930;2022-10-22T16:02:54;32.30;;;23.10;;
59689;SDS011;45557;50.298;18.930;2022-10-22T16:08:16;34.00;;;22.90;;
59689;SDS011;45557;50.298;18.930;2022-10-22T16:13:38;35.90;;;24.80;;
59689;SDS011;45557;50.298;18.930;2022-10-22T16:19:00;36.40;;;24.50;;
59689;SDS011;45557;50.298;18.930;2022-10-22T16:24:22;38.60;;;25.60;;
59689;SDS011;45557;50.298;18.930;2022-10-22T16:29:44;35.30;;;27.60;;
59689;SDS011;45557;50.298;18.930;2022-10-22T16:35:06;37.20;;;26.00;;
59689;SDS011;45557;50.298;18.930;2022-10-22T16:40:28;37.00;;;27.30;;
59689;SDS011;45557;50.298;18.930;2022-10-22T16:45:51;43.60;;;30.90;;
59689;SDS011;45557;50.298;18.930;2022-10-22T16:51:15;42.10;;;29.20;;
59689;SDS011;45557;50.298;18.930;2022-10-22T16:56:39;49.80;;;33.30;;
59689;SDS011;45557;50.298;18.930;2022-10-22T17:02:01;47.60;;;33.80;;
59689;SDS011;45557;50.298;18.930;2022-10-22T17:07:28;48.10;;;32.40;;
59689;SDS011;45557;50.298;18.930;2022-10-22T17:12:49;44.20;;;30.60;;
59689;SDS011;45557;50.298;18.930;2022-10-22T17:18:52;43.70;;;28.30;;
59689;SDS011;45557;50.298;18.930;2022-10-22T17:24:15;38.80;;;28.00;;
59689;SDS011;45557;50.298;18.930;2022-10-22T17:29:39;40.70;;;29.70;;
59689;SDS011;45557;50.298;18.930;2022-10-22T17:35:01;42.00;;;29.80;;
59689;SDS011;45557;50.298;18.930;2022-10-22T17:40:23;38.50;;;27.20;;
59689;SDS011;45557;50.298;18.930;2022-10-22T17:45:48;39.80;;;28.00;;
59689;SDS011;45557;50.298;18.930;2022-10-22T17:51:44;41.80;;;30.10;;
59689;SDS011;45557;50.298;18.930;2022-10-22T17:57:09;39.60;;;28.50;;
59689;SDS011;45557;50.298;18.930;2022-10-22T18:02:33;40.70;;;30.60;;
59689;SDS011;45557;50.298;18.930;2022-10-22T18:08:41;41.10;;;30.40;;
59689;SDS011;45557;50.298;18.930;2022-10-22T18:14:56;41.30;;;30.40;;
59689;SDS011;45557;50.298;18.930;2022-10-22T18:27:47;44.00;;;30.00;;
59689;SDS011;45557;50.298;18.930;2022-10-22T18:39:11;47.00;;;32.80;;
59689;SDS011;45557;50.298;18.930;2022-10-22T18:44:35;42.80;;;31.80;;
59689;SDS011;45557;50.298;18.930;2022-10-22T18:49:59;41.20;;;28.90;;
59689;SDS011;45557;50.298;18.930;2022-10-22T18:56:21;39.90;;;28.20;;
59689;SDS011;45557;50.298;18.930;2022-10-22T19:02:26;33.80;;;24.40;;
59689;SDS011;45557;50.298;18.930;2022-10-22T19:08:12;38.30;;;27.30;;
59689;SDS011;45557;50.298;18.930;2022-10-22T19:14:32;36.10;;;26.20;;
59689;SDS011;45557;50.298;18.930;2022-10-22T19:19:54;35.20;;;25.90;;
59689;SDS011;45557;50.298;18.930;2022-10-22T19:25:16;36.50;;;25.90;;
59689;SDS011;45557;50.298;18.930;2022-10-22T19:30:39;37.20;;;27.30;;
59689;SDS011;45557;50.298;18.930;2022-10-22T19:36:08;36.40;;;25.70;;
59689;SDS011;45557;50.298;18.930;2022-10-22T19:41:34;34.60;;;25.30;;
59689;SDS011;45557;50.298;18.930;2022-10-22T19:46:57;36.10;;;25.70;;
59689;SDS011;45557;50.298;18.930;2022-10-22T19:52:19;39.10;;;26.80;;
59689;SDS011;45557;50.298;18.930;2022-10-22T19:59:03;37.00;;;25.10;;
59689;SDS011;45557;50.298;18.930;2022-10-22T20:05:32;33.00;;;23.80;;
59689;SDS011;45557;50.298;18.930;2022-10-22T20:12:15;32.80;;;23.10;;
59689;SDS011;45557;50.298;18.930;2022-10-22T20:17:57;34.60;;;23.90;;
59689;SDS011;45557;50.298;18.930;2022-10-22T20:23:28;31.40;;;22.30;;
59689;SDS011;45557;50.298;18.930;2022-10-22T20:28:50;35.30;;;25.50;;
59689;SDS011;45557;50.298;18.930;2022-10-22T20:34:12;34.60;;;23.70;;
59689;SDS011;45557;50.298;18.930;2022-10-22T20:39:34;35.10;;;23.80;;
59689;SDS011;45557;50.298;18.930;2022-10-22T20:44:56;33.40;;;25.20;;
59689;SDS011;45557;50.298;18.930;2022-10-22T20:50:18;32.20;;;24.70;;
59689;SDS011;45557;50.298;18.930;2022-10-22T20:55:41;33.10;;;23.70;;
59689;SDS011;45557;50.298;18.930;2022-10-22T21:01:04;33.90;;;23.20;;
59689;SDS011;45557;50.298;18.930;2022-10-22T21:06:30;31.50;;;21.70;;
59689;SDS011;45557;50.298;18.930;2022-10-22T21:11:53;34.30;;;24.20;;
59689;SDS011;45557;50.298;18.930;2022-10-22T21:17:15;38.80;;;25.20;;
59689;SDS011;45557;50.298;18.930;2022-10-22T21:22:37;36.30;;;25.00;;
59689;SDS011;45557;50.298;18.930;2022-10-22T21:27:59;34.90;;;24.40;;
59689;SDS011;45557;50.298;18.930;2022-10-22T21:33:21;39.20;;;25.20;;
59689;SDS011;45557;50.298;18.930;2022-10-22T21:38:43;36.10;;;25.00;;
59689;SDS011;45557;50.298;18.930;2022-10-22T21:44:04;38.10;;;27.60;;
59689;SDS011;45557;50.298;18.930;2022-10-22T21:49:27;41.60;;;27.80;;
59689;SDS011;45557;50.298;18.930;2022-10-22T21:54:48;39.60;;;27.40;;
59689;SDS011;45557;50.298;18.930;2022-10-22T22:00:11;36.80;;;25.40;;
59689;SDS011;45557;50.298;18.930;2022-10-22T22:05:39;35.70;;;26.10;;
59689;SDS011;45557;50.298;18.930;2022-10-22T22:11:01;38.10;;;25.10;;
59689;SDS011;45557;50.298;18.930;2022-10-22T22:16:30;33.60;;;24.60;;
59689;SDS011;45557;50.298;18.930;2022-10-22T22:21:54;33.80;;;24.30;;
59689;SDS011;45557;50.298;18.930;2022-10-22T22:27:16;33.30;;;23.70;;
59689;SDS011;45557;50.298;18.930;2022-10-22T22:32:38;35.00;;;24.70;;
59689;SDS011;45557;50.298;18.930;2022-10-22T22:37:59;32.00;;;22.10;;
59689;SDS011;45557;50.298;18.930;2022-10-22T22:43:22;31.90;;;21.90;;
59689;SDS011;45557;50.298;18.930;2022-10-22T22:48:43;34.50;;;23.40;;
59689;SDS011;45557;50.298;18.930;2022-10-22T22:54:09;34.10;;;24.90;;
59689;SDS011;45557;50.298;18.930;2022-10-22T22:59:32;36.70;;;25.50;;
59689;SDS011;45557;50.298;18.930;2022-10-22T23:04:53;31.80;;;23.10;;
59689;SDS011;45557;50.298;18.930;2022-10-22T23:10:15;37.60;;;27.40;;
59689;SDS011;45557;50.298;18.930;2022-10-22T23:15:38;34.50;;;23.70;;
59689;SDS011;45557;50.298;18.930;2022-10-22T23:21:04;34.20;;;25.30;;
59689;SDS011;45557;50.298;18.930;2022-10-22T23:26:28;37.10;;;23.90;;
59689;SDS011;45557;50.298;18.930;2022-10-22T23:32:00;35.90;;;25.10;;
59689;SDS011;45557;50.298;18.930;2022-10-22T23:37:22;35.90;;;24.60;;
59689;SDS011;45557;50.298;18.930;2022-10-22T23:43:48;36.70;;;25.40;;
59689;SDS011;45557;50.298;18.930;2022-10-22T23:49:11;32.50;;;21.70;;
59689;SDS011;45557;50.298;18.930;2022-10-22T23:54:33;35.40;;;24.80;;
59689;SDS011;45557;50.298;18.930;2022-10-22T23:59:54;35.30;;;24.00;;
